createdAt,value
2018-08-18T00:00:40.101Z,17.93
2018-08-18T00:02:45.288Z,18.83
2018-08-18T00:04:50.409Z,19.50
2018-08-18T00:06:54.294Z,19.27
2018-08-18T00:09:00.105Z,19.03
2018-08-18T00:11:04.993Z,18.50
2018-08-18T00:13:09.273Z,18.27
2018-08-18T00:15:16.487Z,19.20
2018-08-18T00:17:20.358Z,17.53
2018-08-18T00:19:27.141Z,19.10
2018-08-18T00:21:33.409Z,18.70
2018-08-18T00:23:37.390Z,18.17
2018-08-18T00:25:42.149Z,18.47
2018-08-18T00:27:47.344Z,17.50
2018-08-18T00:29:52.159Z,17.77
2018-08-18T00:31:56.055Z,18.27
2018-08-18T00:34:00.372Z,18.17
2018-08-18T00:36:08.388Z,18.03
2018-08-18T00:38:12.251Z,18.67
2018-08-18T00:40:17.876Z,18.37
2018-08-18T00:42:21.867Z,18.20
2018-08-18T00:44:25.839Z,18.53
2018-08-18T00:46:32.887Z,18.50
2018-08-18T00:48:36.704Z,17.23
2018-08-18T00:50:42.542Z,16.77
2018-08-18T00:52:47.864Z,17.47
2018-08-18T00:54:51.687Z,16.47
2018-08-18T00:57:00.745Z,15.97
2018-08-18T00:59:05.180Z,16.03
2018-08-18T01:01:09.847Z,16.10
2018-08-18T01:03:13.746Z,16.57
2018-08-18T01:05:18.847Z,14.87
2018-08-18T01:07:22.734Z,16.13
2018-08-18T01:09:50.245Z,14.97
2018-08-18T01:11:54.682Z,14.30
2018-08-18T01:14:02.234Z,14.37
2018-08-18T01:16:06.479Z,15.00
2018-08-18T01:18:10.876Z,14.43
2018-08-18T01:20:14.945Z,13.57
2018-08-18T01:22:18.921Z,13.43
2018-08-18T01:24:23.633Z,13.23
2018-08-18T01:26:27.539Z,13.73
2018-08-18T01:28:31.456Z,13.53
2018-08-18T01:30:37.496Z,12.70
2018-08-18T01:32:42.832Z,13.17
2018-08-18T01:34:47.788Z,12.33
2018-08-18T01:36:53.568Z,12.00
2018-08-18T01:38:57.674Z,11.97
2018-08-18T01:41:13.605Z,11.37
2018-08-18T01:43:18.025Z,12.20
2018-08-18T01:45:23.810Z,11.53
2018-08-18T01:47:28.089Z,10.87
2018-08-18T01:49:33.468Z,11.37
2018-08-18T01:51:37.366Z,10.67
2018-08-18T01:53:41.225Z,10.80
2018-08-18T01:55:45.429Z,10.57
2018-08-18T01:57:50.015Z,10.70
2018-08-18T01:59:54.918Z,10.60
2018-08-18T02:01:59.272Z,10.63
2018-08-18T02:04:05.508Z,11.30
2018-08-18T02:06:10.488Z,9.70
2018-08-18T02:08:16.162Z,9.77
2018-08-18T02:10:26.991Z,9.83
2018-08-18T02:12:33.997Z,10.73
2018-08-18T02:14:38.255Z,10.20
2018-08-18T02:16:42.582Z,10.07
2018-08-18T02:18:47.320Z,9.67
2018-08-18T02:20:52.011Z,9.10
2018-08-18T02:22:58.289Z,9.87
2018-08-18T02:25:04.508Z,9.30
2018-08-18T02:27:10.240Z,9.17
2018-08-18T02:29:19.980Z,9.13
2018-08-18T02:31:25.739Z,8.53
2018-08-18T02:33:29.607Z,8.80
2018-08-18T02:35:33.876Z,8.03
2018-08-18T02:37:38.939Z,8.33
2018-08-18T02:39:44.688Z,8.37
2018-08-18T02:42:04.542Z,7.97
2018-08-18T02:44:09.847Z,8.17
2018-08-18T02:46:29.147Z,8.57
2018-08-18T02:48:33.698Z,8.37
2018-08-18T02:50:43.643Z,8.23
2018-08-18T02:52:48.267Z,7.43
2018-08-18T02:54:58.238Z,7.30
2018-08-18T02:57:04.790Z,7.53
2018-08-18T02:59:09.027Z,7.43
2018-08-18T03:01:13.321Z,7.37
2018-08-18T03:03:18.844Z,6.77
2018-08-18T03:05:23.170Z,7.50
2018-08-18T03:07:32.313Z,7.70
2018-08-18T03:09:37.935Z,7.77
2018-08-18T03:11:45.938Z,6.77
2018-08-18T03:13:51.047Z,7.00
2018-08-18T03:15:57.912Z,7.73
2018-08-18T03:18:03.422Z,6.97
2018-08-18T03:20:17.344Z,6.63
2018-08-18T03:22:26.004Z,6.80
2018-08-18T03:24:33.303Z,8.20
2018-08-18T03:26:44.437Z,7.77
2018-08-18T03:28:51.094Z,6.70
2018-08-18T03:30:55.712Z,7.00
2018-08-18T03:33:00.063Z,6.70
2018-08-18T03:35:04.115Z,6.67
2018-08-18T03:37:23.206Z,7.17
2018-08-18T03:39:33.484Z,6.50
2018-08-18T03:41:37.637Z,6.70
2018-08-18T03:43:43.493Z,6.00
2018-08-18T03:45:48.911Z,6.23
2018-08-18T03:47:52.913Z,5.50
2018-08-18T03:49:57.800Z,5.80
2018-08-18T03:52:09.481Z,5.73
2018-08-18T03:54:13.982Z,5.60
2018-08-18T03:56:18.175Z,5.70
2018-08-18T03:58:26.511Z,5.63
2018-08-18T04:00:36.902Z,5.53
2018-08-18T04:02:41.042Z,5.47
2018-08-18T04:04:45.729Z,5.47
2018-08-18T04:06:51.055Z,4.93
2018-08-18T04:08:58.965Z,5.50
2018-08-18T04:11:03.711Z,5.47
2018-08-18T04:13:09.494Z,5.20
2018-08-18T04:15:17.090Z,4.90
2018-08-18T04:17:33.971Z,4.83
2018-08-18T04:19:38.445Z,5.00
2018-08-18T04:21:44.867Z,4.87
2018-08-18T04:23:51.058Z,4.80
2018-08-18T04:25:55.615Z,4.73
2018-08-18T04:28:01.743Z,4.67
2018-08-18T04:30:21.497Z,4.30
2018-08-18T04:32:28.789Z,4.47
2018-08-18T04:34:35.317Z,4.70
2018-08-18T04:36:39.640Z,4.70
2018-08-18T04:38:43.894Z,4.10
2018-08-18T04:40:48.293Z,4.00
2018-08-18T04:42:53.858Z,4.40
2018-08-18T04:44:58.055Z,4.30
2018-08-18T04:47:02.758Z,4.53
2018-08-18T04:49:10.638Z,4.50
2018-08-18T04:51:16.867Z,3.83
2018-08-18T04:53:21.011Z,4.00
2018-08-18T04:55:25.591Z,3.90
2018-08-18T04:57:30.935Z,4.70
2018-08-18T04:59:35.684Z,4.07
2018-08-18T05:01:41.652Z,3.93
2018-08-18T05:04:01.004Z,4.10
2018-08-18T05:06:05.717Z,4.50
2018-08-18T05:08:11.959Z,3.60
2018-08-18T05:10:17.553Z,4.33
2018-08-18T05:12:24.548Z,3.90
2018-08-18T05:14:29.684Z,4.50
2018-08-18T05:16:35.210Z,4.17
2018-08-18T05:18:42.254Z,4.37
2018-08-18T05:20:50.615Z,3.90
2018-08-18T05:22:54.644Z,3.63
2018-08-18T05:24:58.691Z,3.90
2018-08-18T05:27:10.871Z,3.40
2018-08-18T05:29:16.425Z,4.07
2018-08-18T05:31:22.258Z,3.77
2018-08-18T05:33:26.641Z,3.50
2018-08-18T05:35:32.120Z,3.57
2018-08-18T05:37:38.987Z,3.53
2018-08-18T05:39:48.814Z,3.73
2018-08-18T05:41:54.608Z,3.43
2018-08-18T05:43:59.658Z,3.40
2018-08-18T05:46:05.132Z,3.90
2018-08-18T05:48:11.271Z,2.97
2018-08-18T05:50:18.633Z,3.03
2018-08-18T05:52:26.368Z,3.47
2018-08-18T05:54:32.436Z,3.57
2018-08-18T05:56:37.500Z,3.50
2018-08-18T05:58:55.256Z,3.53
2018-08-18T06:01:07.490Z,3.20
2018-08-18T06:03:17.182Z,3.13
2018-08-18T06:05:22.154Z,3.10
2018-08-18T06:07:27.128Z,3.53
2018-08-18T06:09:31.328Z,3.60
2018-08-18T06:11:39.285Z,3.80
2018-08-18T06:13:46.739Z,3.30
2018-08-18T06:16:12.284Z,3.53
2018-08-18T06:18:19.878Z,3.63
2018-08-18T06:20:26.274Z,3.07
2018-08-18T06:22:31.679Z,2.90
2018-08-18T06:24:40.363Z,2.90
2018-08-18T06:26:47.104Z,3.27
2018-08-18T06:28:53.996Z,3.73
2018-08-18T06:31:01.850Z,3.37
2018-08-18T06:33:08.823Z,3.33
2018-08-18T06:35:15.856Z,3.13
2018-08-18T06:37:30.607Z,3.20
2018-08-18T06:39:51.442Z,3.10
2018-08-18T06:41:58.997Z,3.07
2018-08-18T06:44:10.213Z,2.97
2018-08-18T06:46:16.898Z,2.30
2018-08-18T06:48:24.766Z,2.67
2018-08-18T06:50:37.616Z,3.33
2018-08-18T06:52:45.944Z,2.77
2018-08-18T06:54:54.154Z,3.17
2018-08-18T06:57:01.390Z,2.67
2018-08-18T06:59:11.008Z,2.93
2018-08-18T07:01:18.378Z,2.70
2018-08-18T07:03:33.947Z,2.63
2018-08-18T07:05:37.964Z,3.20
2018-08-18T07:07:44.958Z,2.83
2018-08-18T07:09:52.724Z,2.60
2018-08-18T07:11:59.764Z,2.33
2018-08-18T07:14:06.635Z,3.07
2018-08-18T07:16:14.944Z,2.80
2018-08-18T07:18:21.453Z,3.00
2018-08-18T07:20:35.723Z,2.50
2018-08-18T07:22:42.518Z,3.07
2018-08-18T07:24:49.607Z,2.50
2018-08-18T07:26:57.962Z,2.27
2018-08-18T07:29:05.200Z,2.63
2018-08-18T07:31:10.888Z,2.90
2018-08-18T07:33:17.988Z,2.73
2018-08-18T07:35:22.898Z,2.90
2018-08-18T07:37:32.277Z,2.77
2018-08-18T07:39:39.489Z,3.10
2018-08-18T07:41:46.946Z,3.07
2018-08-18T07:44:00.497Z,3.30
2018-08-18T07:46:07.675Z,2.70
2018-08-18T07:48:14.376Z,2.90
2018-08-18T07:50:24.526Z,2.93
2018-08-18T07:52:34.865Z,2.90
2018-08-18T07:54:45.138Z,2.80
2018-08-18T07:56:53.577Z,3.23
2018-08-18T07:59:00.221Z,3.00
2018-08-18T08:01:15.109Z,3.50
2018-08-18T08:05:36.304Z,3.43
2018-08-18T08:07:44.247Z,3.37
2018-08-18T08:09:51.455Z,2.93
2018-08-18T08:12:01.776Z,3.47
2018-08-18T08:14:09.388Z,2.83
2018-08-18T08:16:18.567Z,3.07
2018-08-18T08:18:24.883Z,3.70
2018-08-18T08:20:31.896Z,3.07
2018-08-18T08:22:40.393Z,3.27
2018-08-18T08:24:48.310Z,3.23
2018-08-18T08:26:54.802Z,3.30
2018-08-18T08:29:02.761Z,3.15
2018-08-18T08:31:10.070Z,3.40
2018-08-18T08:33:25.643Z,2.90
2018-08-18T08:35:32.283Z,3.17
2018-08-18T08:37:40.327Z,3.60
2018-08-18T08:39:48.131Z,3.20
2018-08-18T08:41:57.753Z,3.63
2018-08-18T08:44:04.775Z,3.47
2018-08-18T08:46:12.706Z,3.07
2018-08-18T08:48:20.297Z,3.60
2018-08-18T08:50:26.209Z,3.30
2018-08-18T08:52:39.812Z,3.30
2018-08-18T08:54:47.552Z,3.10
2018-08-18T08:56:55.946Z,2.98
2018-08-18T08:59:04.690Z,4.00
2018-08-18T09:01:14.472Z,3.15
2018-08-18T09:03:21.807Z,3.05
2018-08-18T09:05:32.777Z,3.42
2018-08-18T09:07:43.270Z,3.20
2018-08-18T09:09:51.491Z,4.00
2018-08-18T09:11:59.755Z,3.55
2018-08-18T09:14:10.910Z,3.17
2018-08-18T09:16:17.076Z,3.87
2018-08-18T09:18:24.186Z,3.40
2018-08-18T09:20:33.717Z,3.27
2018-08-18T09:22:50.631Z,3.83
2018-08-18T09:25:01.547Z,3.85
2018-08-18T09:27:07.134Z,3.65
2018-08-18T09:29:14.514Z,3.85
2018-08-18T09:31:21.610Z,3.80
2018-08-18T09:33:29.295Z,4.60
2018-08-18T09:35:49.466Z,4.80
2018-08-18T09:38:03.582Z,4.25
2018-08-18T09:40:10.753Z,4.20
2018-08-18T09:42:19.390Z,4.17
2018-08-18T09:44:31.605Z,5.22
2018-08-18T09:46:38.617Z,4.72
2018-08-18T09:48:45.527Z,6.08
2018-08-18T09:50:59.796Z,6.03
2018-08-18T09:53:06.220Z,4.80
2018-08-18T09:55:17.573Z,6.37
2018-08-18T09:57:25.452Z,5.17
2018-08-18T09:59:31.550Z,5.33
2018-08-18T10:01:40.680Z,5.72
2018-08-18T10:03:49.630Z,5.20
2018-08-18T10:05:55.574Z,5.92
2018-08-18T10:08:04.683Z,5.67
2018-08-18T10:10:12.399Z,5.22
2018-08-18T10:12:21.235Z,5.45
2018-08-18T10:14:28.657Z,5.37
2018-08-18T10:16:34.010Z,5.08
2018-08-18T10:18:47.067Z,4.95
2018-08-18T10:20:55.718Z,4.87
2018-08-18T10:23:00.793Z,4.47
2018-08-18T10:25:07.594Z,4.20
2018-08-18T10:27:14.129Z,4.92
2018-08-18T10:29:28.470Z,4.70
2018-08-18T10:31:42.260Z,5.08
2018-08-18T10:33:48.219Z,4.70
2018-08-18T10:35:53.625Z,4.60
2018-08-18T10:37:58.509Z,4.20
2018-08-18T10:40:12.100Z,4.95
2018-08-18T10:42:23.453Z,4.85
2018-08-18T10:44:32.410Z,4.50
2018-08-18T10:46:41.036Z,5.20
2018-08-18T10:48:48.536Z,4.78
2018-08-18T10:51:48.332Z,4.25
2018-08-18T10:53:55.785Z,6.50
2018-08-18T10:56:00.017Z,5.92
2018-08-18T10:58:06.828Z,5.95
2018-08-18T11:00:22.505Z,5.87
2018-08-18T11:02:33.811Z,6.12
2018-08-18T11:04:38.834Z,4.42
2018-08-18T11:06:50.091Z,5.42
2018-08-18T11:08:56.345Z,5.37
2018-08-18T11:11:02.534Z,4.83
2018-08-18T11:13:09.840Z,5.60
2018-08-18T11:15:16.980Z,5.40
2018-08-18T11:17:22.136Z,6.20
2018-08-18T11:19:28.104Z,5.87
2018-08-18T11:21:35.342Z,5.37
2018-08-18T11:23:41.157Z,5.45
2018-08-18T11:25:57.788Z,5.58
2018-08-18T11:28:06.788Z,5.45
2018-08-18T11:30:14.445Z,5.10
2018-08-18T11:32:20.106Z,5.20
2018-08-18T11:34:27.731Z,5.20
2018-08-18T11:36:36.100Z,5.35
2018-08-18T11:38:45.811Z,4.45
2018-08-18T11:40:52.762Z,5.35
2018-08-18T11:43:10.910Z,4.62
2018-08-18T11:45:17.532Z,4.78
2018-08-18T11:47:25.757Z,4.47
2018-08-18T11:49:35.251Z,4.87
2018-08-18T11:51:45.801Z,3.62
2018-08-18T11:54:02.230Z,4.10
2018-08-18T11:56:11.406Z,4.15
2018-08-18T11:58:19.009Z,4.17
2018-08-18T12:00:25.973Z,4.28
2018-08-18T12:02:32.579Z,3.65
2018-08-18T12:04:39.676Z,4.15
2018-08-18T12:06:51.579Z,3.65
2018-08-18T12:08:57.944Z,3.52
2018-08-18T12:11:05.115Z,3.27
2018-08-18T12:13:13.410Z,3.52
2018-08-18T12:15:21.495Z,3.42
2018-08-18T12:17:28.988Z,3.00
2018-08-18T12:19:39.219Z,3.22
2018-08-18T12:21:45.502Z,3.00
2018-08-18T12:23:52.698Z,3.20
2018-08-18T12:26:04.425Z,3.00
2018-08-18T12:28:15.674Z,3.02
2018-08-18T12:30:34.066Z,2.62
2018-08-18T12:32:39.912Z,3.35
2018-08-18T12:34:48.607Z,3.12
2018-08-18T12:36:55.440Z,3.20
2018-08-18T12:39:02.657Z,2.98
2018-08-18T12:41:09.062Z,3.12
2018-08-18T12:43:17.813Z,3.00
2018-08-18T12:45:26.746Z,3.45
2018-08-18T12:47:34.480Z,3.20
2018-08-18T12:49:42.189Z,3.08
2018-08-18T12:51:49.461Z,2.83
2018-08-18T12:53:57.733Z,2.72
2018-08-18T12:56:04.347Z,3.02
2018-08-18T12:58:11.078Z,2.98
2018-08-18T13:00:21.444Z,2.65
2018-08-18T13:02:37.452Z,2.27
2018-08-18T13:04:46.466Z,2.65
2018-08-18T13:06:54.341Z,3.08
2018-08-18T13:09:02.508Z,2.77
2018-08-18T13:11:10.246Z,3.08
2018-08-18T13:13:18.005Z,2.60
2018-08-18T13:15:28.650Z,2.77
2018-08-18T13:17:39.332Z,3.20
2018-08-18T13:20:02.874Z,2.58
2018-08-18T13:22:12.484Z,2.55
2018-08-18T13:24:21.369Z,3.05
2018-08-18T13:26:27.921Z,2.72
2018-08-18T13:28:36.052Z,3.05
2018-08-18T13:30:44.959Z,2.65
2018-08-18T13:32:55.045Z,2.50
2018-08-18T13:35:04.946Z,2.40
2018-08-18T13:37:14.022Z,2.80
2018-08-18T13:39:21.318Z,2.77
2018-08-18T13:41:29.841Z,2.87
2018-08-18T13:43:45.527Z,3.10
2018-08-18T13:45:50.987Z,2.87
2018-08-18T13:48:07.832Z,2.45
2018-08-18T13:50:19.907Z,2.55
2018-08-18T13:52:27.103Z,2.62
2018-08-18T13:54:38.373Z,2.50
2018-08-18T13:56:43.765Z,2.72
2018-08-18T13:58:51.817Z,2.55
2018-08-18T14:00:59.072Z,2.80
2018-08-18T14:03:14.242Z,2.83
2018-08-18T14:05:26.660Z,2.77
2018-08-18T14:07:41.974Z,3.00
2018-08-18T14:10:53.092Z,3.12
2018-08-18T14:13:07.722Z,2.50
2018-08-18T14:15:16.236Z,2.60
2018-08-18T14:17:25.348Z,2.55
2018-08-18T14:19:34.982Z,2.65
2018-08-18T14:21:41.589Z,2.60
2018-08-18T14:23:49.010Z,2.40
2018-08-18T14:25:56.235Z,2.60
2018-08-18T14:28:07.163Z,2.33
2018-08-18T14:30:29.511Z,2.20
2018-08-18T14:32:39.599Z,2.58
2018-08-18T14:34:58.732Z,2.80
2018-08-18T14:37:10.018Z,2.42
2018-08-18T14:39:25.806Z,2.98
2018-08-18T14:41:42.198Z,2.45
2018-08-18T14:43:50.126Z,2.72
2018-08-18T14:46:00.173Z,2.55
2018-08-18T14:48:05.944Z,2.33
2018-08-18T14:50:25.819Z,2.33
2018-08-18T14:52:35.796Z,2.30
2018-08-18T14:54:44.800Z,2.30
2018-08-18T14:56:54.876Z,2.92
2018-08-18T14:59:04.690Z,2.83
2018-08-18T15:01:16.567Z,2.52
2018-08-18T15:03:24.739Z,2.40
2018-08-18T15:05:31.686Z,2.50
2018-08-18T15:07:47.743Z,2.37
2018-08-18T15:09:56.618Z,3.05
2018-08-18T15:12:03.046Z,2.58
2018-08-18T15:14:12.105Z,2.52
2018-08-18T15:16:19.158Z,2.50
2018-08-18T15:18:23.536Z,2.58
2018-08-18T15:20:31.797Z,2.55
2018-08-18T15:22:41.235Z,2.30
2018-08-18T15:24:46.960Z,2.52
2018-08-18T15:26:53.529Z,2.58
2018-08-18T15:29:00.455Z,2.70
2018-08-18T15:31:10.144Z,2.72
2018-08-18T15:33:19.942Z,2.58
2018-08-18T15:35:29.209Z,2.37
2018-08-18T15:37:38.558Z,2.85
2018-08-18T15:39:45.937Z,2.62
2018-08-18T15:41:53.552Z,2.77
2018-08-18T15:44:00.705Z,2.25
2018-08-18T15:46:08.579Z,2.30
2018-08-18T15:48:15.153Z,2.50
2018-08-18T15:50:22.570Z,2.70
2018-08-18T15:52:32.686Z,2.30
2018-08-18T15:54:36.704Z,2.50
2018-08-18T15:56:41.786Z,2.50
2018-08-18T15:58:49.560Z,2.70
2018-08-18T16:00:55.241Z,2.58
2018-08-18T16:03:02.834Z,2.40
2018-08-18T16:05:10.325Z,2.40
2018-08-18T16:07:17.857Z,2.55
2018-08-18T16:09:27.346Z,2.42
2018-08-18T16:11:33.902Z,2.50
2018-08-18T16:13:39.252Z,2.62
2018-08-18T16:15:53.639Z,2.58
2018-08-18T16:18:00.977Z,2.25
2018-08-18T16:20:11.632Z,2.45
2018-08-18T16:22:18.791Z,2.37
2018-08-18T16:24:33.496Z,2.40
2018-08-18T16:26:41.306Z,2.62
2018-08-18T16:28:51.159Z,2.62
2018-08-18T16:30:58.416Z,2.45
2018-08-18T16:33:14.749Z,2.77
2018-08-18T16:35:20.656Z,2.37
2018-08-18T16:37:28.457Z,2.52
2018-08-18T16:39:37.605Z,2.55
2018-08-18T16:41:47.883Z,3.20
2018-08-18T16:43:53.388Z,2.87
2018-08-18T16:46:11.508Z,2.42
2018-08-18T16:48:20.074Z,2.70
2018-08-18T16:50:26.501Z,2.62
2018-08-18T16:52:36.854Z,2.70
2018-08-18T16:54:43.419Z,3.05
2018-08-18T16:56:50.067Z,2.92
2018-08-18T16:58:59.111Z,3.02
2018-08-18T17:01:04.552Z,2.65
2018-08-18T17:03:08.877Z,2.33
2018-08-18T17:05:14.634Z,3.22
2018-08-18T17:07:21.520Z,3.35
2018-08-18T17:09:37.482Z,2.70
2018-08-18T17:11:47.181Z,2.95
2018-08-18T17:14:15.082Z,4.12
2018-08-18T17:16:23.592Z,4.40
2018-08-18T17:18:28.783Z,3.65
2018-08-18T17:20:33.047Z,3.95
2018-08-18T17:22:37.536Z,3.58
2018-08-18T17:24:42.668Z,3.10
2018-08-18T17:26:47.544Z,2.67
2018-08-18T17:28:52.257Z,2.17
2018-08-18T17:30:59.825Z,2.52
2018-08-18T17:33:05.871Z,2.72
2018-08-18T17:35:13.243Z,2.80
2018-08-18T17:37:22.163Z,2.77
2018-08-18T17:39:27.639Z,2.65
2018-08-18T17:41:33.681Z,2.40
2018-08-18T17:43:45.547Z,3.12
2018-08-18T17:45:57.924Z,2.62
2018-08-18T17:48:04.189Z,2.72
2018-08-18T17:50:11.708Z,2.27
2018-08-18T17:52:16.273Z,2.80
2018-08-18T17:54:21.516Z,2.60
2018-08-18T17:56:27.491Z,2.52
2018-08-18T17:58:33.199Z,2.55
2018-08-18T18:00:45.804Z,2.47
2018-08-18T18:02:56.198Z,2.80
2018-08-18T18:05:05.686Z,2.70
2018-08-18T18:07:15.031Z,2.92
2018-08-18T18:09:19.667Z,2.47
2018-08-18T18:11:26.570Z,2.35
2018-08-18T18:13:32.377Z,2.20
2018-08-18T18:15:38.230Z,2.52
2018-08-18T18:17:44.446Z,2.10
2018-08-18T18:19:49.307Z,2.08
2018-08-18T18:21:54.760Z,2.52
2018-08-18T18:24:01.440Z,2.10
2018-08-18T18:26:10.332Z,2.52
2018-08-18T18:28:17.708Z,2.25
2018-08-18T18:30:29.338Z,2.15
2018-08-18T18:32:37.722Z,2.55
2018-08-18T18:34:51.802Z,2.55
2018-08-18T18:36:57.627Z,2.60
2018-08-18T18:39:05.873Z,2.17
2018-08-18T18:41:13.374Z,2.17
2018-08-18T18:43:21.058Z,2.50
2018-08-18T18:45:29.385Z,2.25
2018-08-18T18:47:36.439Z,2.65
2018-08-18T18:49:44.276Z,2.50
2018-08-18T18:51:52.713Z,1.95
2018-08-18T18:54:03.255Z,1.90
2018-08-18T18:56:08.769Z,2.50
2018-08-18T18:58:16.413Z,2.43
2018-08-18T19:00:27.878Z,2.00
2018-08-18T19:02:39.111Z,2.43
2018-08-18T19:04:48.467Z,2.43
2018-08-18T19:07:04.882Z,2.30
2018-08-18T19:09:11.438Z,2.05
2018-08-18T19:11:16.381Z,2.40
2018-08-18T19:13:23.415Z,2.17
2018-08-18T19:15:31.292Z,2.13
2018-08-18T19:17:40.550Z,1.97
2018-08-18T19:19:47.297Z,2.47
2018-08-18T19:21:54.678Z,2.53
2018-08-18T19:26:12.445Z,1.97
2018-08-18T19:28:22.609Z,2.20
2018-08-18T19:30:29.088Z,2.33
2018-08-18T19:32:38.449Z,2.23
2018-08-18T19:34:45.610Z,2.60
2018-08-18T19:37:00.348Z,2.50
2018-08-18T19:39:11.596Z,2.30
2018-08-18T19:41:19.442Z,2.67
2018-08-18T19:43:25.575Z,2.70
2018-08-18T19:45:31.423Z,2.40
2018-08-18T19:47:39.619Z,2.67
2018-08-18T19:49:49.437Z,2.73
2018-08-18T19:52:02.262Z,2.33
2018-08-18T19:54:07.407Z,2.20
2018-08-18T19:56:14.362Z,2.43
2018-08-18T19:58:19.515Z,2.50
2018-08-18T20:00:29.279Z,2.53
2018-08-18T20:02:48.977Z,2.60
2018-08-18T20:04:53.984Z,2.50
2018-08-18T20:06:58.768Z,2.60
2018-08-18T20:09:04.473Z,2.40
2018-08-18T20:11:09.736Z,2.30
2018-08-18T20:13:16.633Z,2.57
2018-08-18T20:15:27.707Z,2.43
2018-08-18T20:17:35.140Z,2.70
2018-08-18T20:19:45.496Z,2.47
2018-08-18T20:21:55.103Z,2.30
2018-08-18T20:24:02.321Z,2.30
2018-08-18T20:26:07.602Z,2.30
2018-08-18T20:28:16.905Z,2.70
2018-08-18T20:30:26.481Z,2.10
2018-08-18T20:32:35.342Z,2.30
2018-08-18T20:34:44.800Z,2.07
2018-08-18T20:36:58.223Z,2.40
2018-08-18T20:39:05.488Z,2.40
2018-08-18T20:41:14.601Z,2.73
2018-08-18T20:43:20.338Z,3.07
2018-08-18T20:45:34.970Z,2.07
2018-08-18T20:47:43.296Z,2.57
2018-08-18T20:49:52.655Z,2.30
2018-08-18T20:51:59.711Z,2.60
2018-08-18T20:54:09.088Z,2.30
2018-08-18T20:56:15.152Z,2.40
2018-08-18T20:58:21.230Z,2.10
2018-08-18T21:00:30.457Z,2.50
2018-08-18T21:02:38.348Z,2.27
2018-08-18T21:04:47.427Z,2.20
2018-08-18T21:06:55.528Z,2.30
2018-08-18T21:09:04.342Z,2.50
2018-08-18T21:11:11.637Z,2.20
2018-08-18T21:13:21.427Z,2.23
2018-08-18T21:15:27.909Z,2.20
2018-08-18T21:17:36.283Z,2.17
2018-08-18T21:19:55.672Z,2.37
2018-08-18T21:22:04.735Z,2.50
2018-08-18T21:24:12.738Z,2.30
2018-08-18T21:26:22.783Z,2.20
2018-08-18T21:28:29.496Z,2.17
2018-08-18T21:30:36.377Z,2.20
2018-08-18T21:32:50.282Z,2.43
2018-08-18T21:34:58.143Z,2.13
2018-08-18T21:37:07.350Z,2.63
2018-08-18T21:39:18.123Z,2.47
2018-08-18T21:41:33.121Z,2.57
2018-08-18T21:43:43.580Z,18.53
2018-08-18T21:45:49.892Z,23.87
2018-08-18T21:47:57.833Z,3.43
2018-08-18T21:50:08.737Z,3.50
2018-08-18T21:52:18.112Z,3.00
2018-08-18T21:54:30.494Z,3.00
2018-08-18T21:56:43.548Z,2.90
2018-08-18T21:58:49.351Z,3.07
2018-08-18T22:01:00.234Z,2.93
2018-08-18T22:03:05.823Z,2.77
2018-08-18T22:05:14.559Z,2.47
2018-08-18T22:07:29.231Z,2.50
2018-08-18T22:09:34.489Z,2.90
2018-08-18T22:11:44.743Z,2.50
2018-08-18T22:13:52.422Z,2.40
2018-08-18T22:16:01.496Z,2.40
2018-08-18T22:18:11.492Z,2.30
2018-08-18T22:20:21.355Z,2.50
2018-08-18T22:22:28.815Z,2.70
2018-08-18T22:24:36.082Z,2.60
2018-08-18T22:26:45.416Z,2.80
2018-08-18T22:29:11.437Z,2.30
2018-08-18T22:31:16.499Z,2.33
2018-08-18T22:33:28.975Z,2.27
2018-08-18T22:35:36.174Z,3.30
2018-08-18T22:37:52.472Z,3.00
2018-08-18T22:39:58.984Z,2.90
2018-08-18T22:42:04.910Z,3.30
2018-08-18T22:44:09.366Z,2.80
2018-08-18T22:46:16.610Z,3.37
2018-08-18T22:48:24.156Z,2.93
2018-08-18T22:50:29.037Z,3.03
2018-08-18T22:52:37.748Z,2.80
2018-08-18T22:54:46.742Z,2.80
2018-08-18T22:56:56.348Z,2.93
2018-08-18T22:59:02.473Z,3.10
2018-08-18T23:01:09.688Z,2.97
2018-08-18T23:03:14.875Z,2.67
2018-08-18T23:05:19.827Z,2.90
2018-08-18T23:07:27.996Z,3.03
2018-08-18T23:09:33.338Z,2.70
2018-08-18T23:11:37.353Z,2.80
2018-08-18T23:13:42.554Z,3.27
2018-08-18T23:15:49.692Z,2.90
2018-08-18T23:17:55.441Z,3.50
2018-08-18T23:20:07.041Z,3.30
2018-08-18T23:22:22.264Z,3.30
2018-08-18T23:24:42.334Z,3.30
2018-08-18T23:26:53.640Z,3.20
2018-08-18T23:28:58.070Z,3.07
2018-08-18T23:31:02.748Z,3.50
2018-08-18T23:33:10.321Z,3.27
2018-08-18T23:35:14.514Z,3.43
2018-08-18T23:37:20.393Z,4.00
2018-08-18T23:39:24.343Z,3.23
2018-08-18T23:41:28.211Z,3.20
2018-08-18T23:43:32.051Z,3.50
2018-08-18T23:45:41.560Z,3.63
2018-08-18T23:47:55.144Z,3.50
2018-08-18T23:50:02.784Z,3.83
2018-08-18T23:52:12.265Z,3.30
2018-08-18T23:54:20.352Z,3.50
2018-08-18T23:56:34.507Z,3.60
2018-08-18T23:58:39.784Z,3.50
